CDT,Max TemperatureF,Mean TemperatureF,Min TemperatureF,Max Dew PointF,MeanDew PointF,Min DewpointF,Max Humidity, Mean Humidity, Min Humidity, Max Sea Level PressureIn, Mean Sea Level PressureIn, Min Sea Level PressureIn, Max VisibilityMiles, Mean VisibilityMiles, Min VisibilityMiles, Max Wind SpeedMPH, Mean Wind SpeedMPH, Max Gust SpeedMPH,PrecipitationIn, CloudCover, Events, WindDirDegrees
2012-9-1,86,72,57,63,55,52,82,58,33,30.10,30.06,30.00,10,10,10,14,7,21,0.00,0,,85
2012-9-2,89,74,60,63,58,54,77,56,33,30.01,29.92,29.83,10,10,10,16,9,22,0.00,0,,164
2012-9-3,89,76,62,63,58,39,94,58,18,29.95,29.91,29.87,10,10,10,12,5,,0.00,0,,115
2012-9-4,91,76,62,64,52,41,83,48,17,29.93,29.83,29.73,10,10,7,28,7,34,0.03,0,Rain-Thunderstorm,210
2012-9-5,78,66,51,55,50,37,94,61,24,29.96,29.87,29.75,10,10,10,17,8,25,0.00,0,,333
2012-9-6,82,63,44,61,46,37,93,61,20,30.00,29.93,29.83,10,10,7,14,3,21,0.04,1,Rain-Thunderstorm,124
2012-9-7,69,60,48,55,48,39,94,67,33,30.09,30.00,29.84,10,10,10,21,11,26,0.00,3,,334
2012-9-8,82,62,41,46,41,34,93,56,20,30.09,30.02,29.89,10,10,10,26,11,40,0.00,0,,290
2012-9-9,75,60,46,48,45,39,93,59,29,30.23,30.15,30.09,10,10,10,10,6,,0.00,0,,290
2012-9-10,84,68,53,50,46,43,77,47,23,30.09,29.94,29.81,10,10,10,30,12,37,0.00,0,,177
2012-9-11,93,78,64,52,48,43,64,39,17,29.91,29.78,29.72,10,10,10,31,18,38,0.00,0,,193
2012-9-12,68,60,53,52,46,34,94,68,32,30.27,30.16,29.92,10,10,7,17,8,24,0.00,4,Rain,328
2012-9-13,77,62,46,50,42,27,100,60,19,30.37,30.30,30.26,10,10,7,14,3,21,0.00,1,,233
2012-9-14,80,60,41,46,40,30,93,50,17,30.30,30.26,30.20,10,10,10,12,4,16,0.00,0,,158
2012-9-15,82,68,53,45,39,30,72,41,15,30.20,30.10,30.00,10,10,10,28,12,32,0.00,0,,198
2012-9-16,82,70,59,57,49,41,88,54,25,30.00,29.94,29.87,10,10,7,16,11,22,0.00,0,Thunderstorm,241
2012-9-17,64,54,44,48,42,32,100,72,34,30.05,30.01,29.94,10,10,10,22,12,29,0.02,4,Rain-Thunderstorm,331
2012-9-18,60,46,33,39,33,27,100,58,27,30.07,30.00,29.85,10,10,10,12,7,17,0.00,2,,286
2012-9-19,75,62,46,45,35,25,72,42,17,29.92,29.79,29.70,10,10,10,26,13,40,0.00,0,,254
2012-9-20,66,54,41,43,30,23,76,43,19,29.99,29.94,29.90,10,10,7,21,8,28,0.00,1,Rain,276
2012-9-21,69,58,46,45,37,30,82,52,26,29.96,29.86,29.82,10,10,10,24,5,36,0.00,4,Rain,304
2012-9-22,57,46,35,36,27,19,75,53,25,30.28,30.18,29.97,10,10,10,22,16,29,0.00,2,,321
2012-9-23,62,44,26,30,25,21,93,54,20,30.34,30.27,30.17,10,10,7,10,3,10,0.00,0,,295
2012-9-24,80,56,33,39,32,25,75,40,18,30.16,29.94,29.79,10,10,10,24,8,32,0.00,0,,220
2012-9-25,71,56,41,39,34,28,81,49,20,29.97,29.89,29.81,10,10,10,14,6,18,0.00,0,,331
2012-9-26,66,48,30,36,30,27,93,53,23,30.20,30.10,29.96,10,10,4,14,5,18,0.00,0,,344
2012-9-27,69,50,30,36,31,27,86,50,21,30.25,30.20,30.15,10,10,4,7,1,,0.00,0,,64
2012-9-28,78,56,35,39,32,28,81,45,16,30.23,30.16,30.12,10,9,4,6,1,,0.00,0,,174
2012-9-29,82,62,42,37,33,27,66,40,15,30.16,30.10,30.02,10,10,5,8,1,,0.00,0,,253
2012-9-30,82,62,42,37,35,32,81,43,16,30.04,29.97,29.90,10,10,7,7,1,,0.00,0,,253